Terminal Aerodrome Forecast
Issued by NWS

Home | Current Version | Previous Version | Text Only | Print | Product List | Glossary On
Versions: 1 2 3 4 5 6 7 8 9 10 11 12 13
947
FTUS41 KAKQ 261120
TAFPHF
TAF
KPHF 261120Z 2612/2712 25008KT P6SM SKC
     FM261700 33005KT P6SM VCSH BKN070
     FM262000 09005KT P6SM VCSH BKN070
     FM262200 13005KT P6SM VCSH BKN090
     FM270000 20004KT P6SM BKN100=

USA.gov is the U.S. government's official web portal to all federal, state and local government web resources and services.